Time;durP1;ratioP1;P1;durP2;ratioP2;P2;SDS_P1;SDS_P2;PMS_P1;PMS_P2;Temp;Humidity;BMP_temperature;BMP_pressure;BME280_temperature;BME280_humidity;BME280_pressure;Samples;Min_cycle;Max_cycle;Signal;HPM_P1;HPM_P2
2023/05/08 00:00:08;;;;;;;16.38;14.88;;;12.50;99.90;;;;;;5008610;28;20046;-71
2023/05/08 00:02:33;;;;;;;16.85;15.35;;;12.40;99.90;;;;;;5008707;28;20045;-72
2023/05/08 00:04:59;;;;;;;17.42;15.73;;;12.40;99.90;;;;;;5008927;28;20034;-71
2023/05/08 00:07:25;;;;;;;18.23;16.55;;;12.40;99.90;;;;;;5009163;28;20046;-71
2023/05/08 00:09:50;;;;;;;17.83;16.17;;;12.30;99.90;;;;;;5008145;28;20030;-72
2023/05/08 00:12:23;;;;;;;16.70;15.20;;;12.30;99.90;;;;;;5008553;28;20112;-72
2023/05/08 00:14:49;;;;;;;18.17;16.48;;;12.30;99.90;;;;;;5006599;28;20049;-72
2023/05/08 00:17:15;;;;;;;17.27;15.77;;;12.20;99.90;;;;;;5008020;28;20084;-71
2023/05/08 00:19:41;;;;;;;17.00;15.50;;;12.20;99.90;;;;;;5008371;28;20132;-71
2023/05/08 00:22:06;;;;;;;17.88;16.27;;;12.20;99.90;;;;;;5009734;28;20061;-71
2023/05/08 00:24:32;;;;;;;18.40;16.60;;;12.10;99.90;;;;;;5008209;28;20239;-71
2023/05/08 00:26:58;;;;;;;17.95;16.30;;;12.10;99.90;;;;;;5008602;28;20074;-71
2023/05/08 00:29:23;;;;;;;18.65;16.88;;;12.10;99.90;;;;;;5009074;28;20050;-71
2023/05/08 00:31:49;;;;;;;18.23;16.60;;;12.10;99.90;;;;;;5022995;28;20037;-71
2023/05/08 00:34:15;;;;;;;18.23;16.52;;;12.10;99.90;;;;;;5008683;28;20034;-71
2023/05/08 00:36:40;;;;;;;18.48;16.88;;;12.00;99.90;;;;;;5024893;28;20092;-71
2023/05/08 00:39:06;;;;;;;18.45;16.77;;;12.00;99.90;;;;;;4991436;28;20049;-71
2023/05/08 00:41:32;;;;;;;17.52;15.82;;;12.00;99.90;;;;;;5008827;28;20038;-71
2023/05/08 00:43:58;;;;;;;18.10;16.50;;;12.00;99.90;;;;;;5009500;28;20308;-71
2023/05/08 00:46:23;;;;;;;18.42;16.80;;;12.00;99.90;;;;;;5007531;28;20069;-71
2023/05/08 00:48:49;;;;;;;17.50;15.90;;;12.00;99.90;;;;;;5009447;28;20065;-71
2023/05/08 00:51:15;;;;;;;18.60;16.80;;;11.90;99.90;;;;;;5009519;28;20045;-71
2023/05/08 00:53:44;;;;;;;18.50;16.75;;;11.90;99.90;;;;;;5024774;28;20054;-71
2023/05/08 00:56:12;;;;;;;18.52;16.83;;;11.90;99.90;;;;;;5008974;28;20041;-71
2023/05/08 00:58:39;;;;;;;19.42;17.63;;;11.90;99.90;;;;;;5023687;28;20494;-71
2023/05/08 01:01:06;;;;;;;19.02;17.30;;;11.80;99.90;;;;;;5008977;28;20042;-71
2023/05/08 01:03:34;;;;;;;19.42;17.63;;;11.80;99.90;;;;;;5008728;28;20379;-70
2023/05/08 01:06:03;;;;;;;19.25;17.48;;;11.80;99.90;;;;;;5025230;28;20583;-70
2023/05/08 01:08:30;;;;;;;18.90;17.00;;;11.80;99.90;;;;;;5008747;28;20037;-71
2023/05/08 01:11:22;;;;;;;18.90;17.10;;;11.70;99.90;;;;;;5008280;28;20099;-71
2023/05/08 01:14:19;;;;;;;19.27;17.48;;;11.70;99.90;;;;;;4984280;28;20072;-71
2023/05/08 01:17:03;;;;;;;19.00;17.30;;;11.70;99.90;;;;;;5022655;28;20112;-71
2023/05/08 01:20:00;;;;;;;20.08;18.27;;;11.70;99.90;;;;;;5020968;28;20103;-71
2023/05/08 01:23:07;;;;;;;17.77;16.17;;;11.70;99.90;;;;;;5008332;28;20034;-71
2023/05/08 01:25:54;;;;;;;19.45;17.60;;;11.70;99.90;;;;;;5007822;28;20044;-72
2023/05/08 01:29:04;;;;;;;20.38;18.38;;;11.70;99.90;;;;;;5007224;28;20072;-72
2023/05/08 01:31:46;;;;;;;19.50;17.58;;;11.60;99.90;;;;;;5004482;28;20128;-71
2023/05/08 01:34:22;;;;;;;19.05;17.15;;;11.60;99.90;;;;;;5008845;28;20037;-71
2023/05/08 01:36:57;;;;;;;20.33;18.50;;;11.50;99.90;;;;;;5007595;28;20054;-71
2023/05/08 01:39:34;;;;;;;19.55;17.85;;;11.50;99.90;;;;;;5022707;28;20054;-71
2023/05/08 01:42:25;;;;;;;20.20;18.40;;;11.50;99.90;;;;;;5006330;28;20180;-71
2023/05/08 01:45:00;;;;;;;18.73;17.02;;;11.40;99.90;;;;;;5009590;28;20030;-71
2023/05/08 01:47:29;;;;;;;19.48;17.77;;;11.40;99.90;;;;;;5006972;28;20129;-71
2023/05/08 01:50:04;;;;;;;19.08;17.27;;;11.40;99.90;;;;;;5021772;28;20478;-71
2023/05/08 01:52:42;;;;;;;19.67;17.85;;;11.30;99.90;;;;;;5008592;28;20375;-71
2023/05/08 01:55:11;;;;;;;20.05;17.98;;;11.30;99.90;;;;;;5023685;28;20319;-71
2023/05/08 01:57:43;;;;;;;19.23;17.33;;;11.30;99.90;;;;;;5021272;28;20045;-71
2023/05/08 02:00:10;;;;;;;19.45;17.65;;;11.30;99.90;;;;;;5021723;28;20184;-71
2023/05/08 02:02:36;;;;;;;19.35;17.65;;;11.20;99.90;;;;;;5006601;28;20034;-71
2023/05/08 02:05:05;;;;;;;18.58;16.95;;;11.20;99.90;;;;;;5008075;28;20077;-71
2023/05/08 02:07:34;;;;;;;18.45;16.75;;;11.20;99.90;;;;;;5007282;28;21987;-71
2023/05/08 02:10:02;;;;;;;19.75;17.95;;;11.20;99.90;;;;;;5008200;28;20129;-71
2023/05/08 02:12:29;;;;;;;18.83;17.15;;;11.10;99.90;;;;;;5006764;28;20050;-71
2023/05/08 02:14:55;;;;;;;19.55;17.85;;;11.10;99.90;;;;;;5007587;28;20042;-71
2023/05/08 02:17:22;;;;;;;18.83;17.13;;;11.10;99.90;;;;;;5007253;28;20087;-71
2023/05/08 02:19:49;;;;;;;19.25;17.52;;;11.00;99.90;;;;;;5007650;28;20111;-71
2023/05/08 02:22:17;;;;;;;19.17;17.38;;;11.00;99.90;;;;;;5007232;28;20042;-71
2023/05/08 02:24:44;;;;;;;19.67;17.70;;;11.00;99.90;;;;;;5005574;28;20040;-71
2023/05/08 02:27:12;;;;;;;18.95;17.05;;;11.00;99.90;;;;;;5004238;28;20055;-71
2023/05/08 02:29:38;;;;;;;19.25;17.58;;;10.90;99.90;;;;;;5007874;28;20045;-71
2023/05/08 02:32:07;;;;;;;20.05;18.17;;;10.90;99.90;;;;;;5006569;28;20037;-71
2023/05/08 02:34:35;;;;;;;18.80;17.08;;;10.90;99.90;;;;;;4989546;28;20500;-71
2023/05/08 02:37:02;;;;;;;20.38;18.48;;;10.90;99.90;;;;;;5007378;28;20054;-71
2023/05/08 02:39:30;;;;;;;18.58;16.88;;;10.80;99.90;;;;;;5007508;28;20077;-71
2023/05/08 02:41:56;;;;;;;19.25;17.40;;;10.80;99.90;;;;;;5023647;28;20073;-71
2023/05/08 02:44:22;;;;;;;19.08;17.27;;;10.80;99.90;;;;;;5022787;28;20041;-71
2023/05/08 02:46:59;;;;;;;18.88;17.10;;;10.80;99.90;;;;;;5002284;28;20383;-72
2023/05/08 02:49:35;;;;;;;19.10;17.38;;;10.80;99.90;;;;;;5019407;28;20046;-72
2023/05/08 02:52:36;;;;;;;18.77;17.00;;;10.70;99.90;;;;;;5011568;28;20092;-72
2023/05/08 02:55:13;;;;;;;19.02;17.35;;;10.70;99.90;;;;;;5009954;28;20089;-72
2023/05/08 02:57:46;;;;;;;19.58;17.77;;;10.70;99.90;;;;;;5011760;28;20080;-71
2023/05/08 03:00:25;;;;;;;19.95;18.08;;;10.70;99.90;;;;;;5008462;28;20049;-72
2023/05/08 03:03:11;;;;;;;19.45;17.65;;;10.70;99.90;;;;;;5009284;28;20099;-72
2023/05/08 03:05:38;;;;;;;19.02;17.08;;;10.70;99.90;;;;;;5010540;28;20045;-72
2023/05/08 03:08:14;;;;;;;19.70;17.80;;;10.70;99.90;;;;;;5010089;28;20438;-71
2023/05/08 03:10:44;;;;;;;17.83;16.27;;;10.70;99.90;;;;;;5024294;28;20124;-72
2023/05/08 03:13:12;;;;;;;19.23;17.48;;;10.70;99.90;;;;;;5010921;28;20049;-72
2023/05/08 03:15:42;;;;;;;18.17;16.52;;;10.70;99.90;;;;;;5009594;28;20034;-72
2023/05/08 03:18:16;;;;;;;18.25;16.55;;;10.80;99.90;;;;;;5009452;28;20521;-71
2023/05/08 03:20:48;;;;;;;18.58;16.85;;;10.80;99.90;;;;;;5010211;28;20038;-72
2023/05/08 03:23:17;;;;;;;19.13;17.33;;;10.80;99.90;;;;;;5010939;28;20077;-72
2023/05/08 03:25:45;;;;;;;19.70;17.88;;;10.80;99.90;;;;;;5025791;28;20045;-71
2023/05/08 03:28:12;;;;;;;17.30;15.80;;;10.80;99.90;;;;;;4994767;28;20107;-71
2023/05/08 03:30:40;;;;;;;18.75;16.95;;;10.80;99.90;;;;;;5025911;28;20045;-71
2023/05/08 03:33:07;;;;;;;17.60;16.00;;;10.80;99.90;;;;;;5010339;28;20074;-71
2023/05/08 03:35:38;;;;;;;18.17;16.42;;;10.80;99.90;;;;;;5006251;28;20054;-71
2023/05/08 03:38:05;;;;;;;19.42;17.55;;;10.80;99.90;;;;;;5009753;28;20086;-71
2023/05/08 03:40:41;;;;;;;17.38;15.75;;;10.80;99.90;;;;;;5025225;28;20148;-71
2023/05/08 03:43:08;;;;;;;18.77;17.08;;;10.80;99.90;;;;;;5008793;28;20038;-71
2023/05/08 03:45:38;;;;;;;19.48;17.75;;;10.70;99.90;;;;;;5023915;28;20033;-71
2023/05/08 03:48:06;;;;;;;18.63;16.90;;;10.70;99.90;;;;;;5008814;28;20073;-72
2023/05/08 03:50:34;;;;;;;18.80;17.10;;;10.70;99.90;;;;;;5009254;28;20360;-71
2023/05/08 03:53:00;;;;;;;19.00;17.20;;;10.60;99.90;;;;;;5010669;28;20042;-71
2023/05/08 03:55:26;;;;;;;18.38;16.65;;;10.60;99.90;;;;;;5009738;28;20042;-71
2023/05/08 03:58:25;;;;;;;18.08;16.27;;;10.60;99.90;;;;;;5009243;28;20036;-71
2023/05/08 04:01:10;;;;;;;18.42;16.67;;;10.50;99.90;;;;;;4991014;28;20058;-71
2023/05/08 04:03:57;;;;;;;19.10;17.20;;;10.50;99.90;;;;;;4992058;28;20441;-72
2023/05/08 04:06:27;;;;;;;18.67;16.88;;;10.40;99.90;;;;;;5023135;28;20042;-72
2023/05/08 04:09:04;;;;;;;19.63;17.70;;;10.40;99.90;;;;;;5008566;28;20141;-72
2023/05/08 04:11:41;;;;;;;18.63;16.83;;;10.40;99.90;;;;;;5026504;28;20088;-71
2023/05/08 04:14:12;;;;;;;18.35;16.55;;;10.30;99.90;;;;;;5007204;28;20104;-71
2023/05/08 04:16:46;;;;;;;18.08;16.45;;;10.30;99.90;;;;;;5004351;28;20048;-71
2023/05/08 04:19:18;;;;;;;;;;;10.30;99.90;;;;;;5025796;28;20141;-71
2023/05/08 04:21:47;;;;;;;18.33;16.40;;;10.20;99.90;;;;;;5003600;28;19970;-72
2023/05/08 04:24:15;;;;;;;18.23;16.63;;;10.20;99.90;;;;;;5006878;28;20042;-71
2023/05/08 04:26:42;;;;;;;18.23;16.52;;;10.20;99.90;;;;;;5008103;28;20105;-71
2023/05/08 04:29:08;;;;;;;18.08;16.30;;;10.20;99.90;;;;;;5006774;28;20492;-71
2023/05/08 04:31:36;;;;;;;18.42;16.65;;;10.20;99.90;;;;;;5008447;28;20049;-71
2023/05/08 04:34:02;;;;;;;19.13;17.33;;;10.20;99.90;;;;;;5007331;28;20120;-71
2023/05/08 04:36:30;;;;;;;17.75;15.95;;;10.20;99.90;;;;;;5009223;28;20093;-71
2023/05/08 04:38:56;;;;;;;18.33;16.63;;;10.20;99.90;;;;;;5004071;28;20053;-71
2023/05/08 04:41:22;;;;;;;17.65;15.98;;;10.20;99.90;;;;;;5009440;28;20088;-71
2023/05/08 04:43:48;;;;;;;18.33;16.52;;;10.20;99.90;;;;;;5009401;28;20121;-71
2023/05/08 04:46:14;;;;;;;18.40;16.73;;;10.30;99.90;;;;;;5007798;28;20042;-70
2023/05/08 04:48:39;;;;;;;18.60;16.90;;;10.20;99.90;;;;;;5007902;28;20576;-71
2023/05/08 04:51:05;;;;;;;17.73;15.80;;;10.30;99.90;;;;;;5024010;28;20046;-71
2023/05/08 04:53:31;;;;;;;17.98;16.35;;;10.40;99.90;;;;;;5008888;28;20083;-71
2023/05/08 04:55:58;;;;;;;18.02;16.42;;;10.40;99.90;;;;;;5010886;28;20041;-71
2023/05/08 04:58:23;;;;;;;20.23;18.13;;;10.50;99.90;;;;;;5008682;28;20045;-71
2023/05/08 05:00:49;;;;;;;18.63;16.83;;;10.50;99.90;;;;;;5007716;28;20119;-71
2023/05/08 05:03:15;;;;;;;17.73;16.02;;;10.60;99.90;;;;;;5006209;28;20068;-71
2023/05/08 05:05:41;;;;;;;16.42;14.82;;;10.70;99.90;;;;;;5007731;28;20065;-71
2023/05/08 05:08:06;;;;;;;17.20;15.68;;;10.70;99.90;;;;;;4992410;28;20269;-71
2023/05/08 05:10:32;;;;;;;17.98;16.38;;;10.80;99.90;;;;;;4991943;28;20050;-72
2023/05/08 05:12:58;;;;;;;16.05;14.55;;;10.80;99.90;;;;;;5006283;28;20048;-71
2023/05/08 05:15:23;;;;;;;16.85;15.13;;;10.90;99.90;;;;;;5008476;28;20073;-71
2023/05/08 05:17:49;;;;;;;15.93;14.43;;;10.90;99.90;;;;;;5006487;28;20049;-71
2023/05/08 05:20:15;;;;;;;16.48;14.88;;;11.00;99.90;;;;;;5008134;28;20084;-71
2023/05/08 05:22:41;;;;;;;16.55;14.95;;;11.10;99.90;;;;;;5008431;28;20441;-71
2023/05/08 05:25:06;;;;;;;16.15;14.65;;;11.10;99.90;;;;;;5003365;28;20034;-71
2023/05/08 05:27:36;;;;;;;16.38;14.88;;;11.20;99.90;;;;;;5007026;28;20050;-71
2023/05/08 05:30:02;;;;;;;16.25;14.68;;;11.30;99.90;;;;;;5023069;28;20201;-71
2023/05/08 05:32:28;;;;;;;16.02;14.63;;;11.40;99.90;;;;;;5004756;28;20037;-71
2023/05/08 05:34:54;;;;;;;16.02;14.55;;;11.40;99.90;;;;;;5007256;28;20038;-72
2023/05/08 05:37:20;;;;;;;15.18;13.82;;;11.50;99.90;;;;;;5008209;28;20053;-72
2023/05/08 05:39:45;;;;;;;14.20;12.95;;;11.50;99.90;;;;;;5008642;28;20103;-72
2023/05/08 05:42:11;;;;;;;15.65;14.15;;;11.60;99.90;;;;;;5008464;28;20131;-72
2023/05/08 05:44:37;;;;;;;14.82;13.52;;;11.70;99.90;;;;;;5007919;28;20069;-72
2023/05/08 05:47:08;;;;;;;14.73;13.25;;;11.70;99.90;;;;;;5008248;28;20042;-72
2023/05/08 05:49:34;;;;;;;15.20;13.68;;;11.80;99.90;;;;;;5010269;28;20502;-72
2023/05/08 05:52:00;;;;;;;14.85;13.43;;;11.90;99.90;;;;;;5008286;28;20048;-72
2023/05/08 05:54:26;;;;;;;14.77;13.48;;;12.00;99.90;;;;;;5009462;28;20049;-72
2023/05/08 05:56:51;;;;;;;14.48;13.27;;;12.00;99.90;;;;;;5008950;28;20069;-72
2023/05/08 05:59:17;;;;;;;13.65;12.45;;;12.10;99.90;;;;;;4990287;28;20053;-71
2023/05/08 06:01:43;;;;;;;13.63;12.45;;;12.20;99.90;;;;;;5018188;28;20502;-72
2023/05/08 06:04:08;;;;;;;14.70;13.40;;;12.30;99.90;;;;;;5006441;28;20069;-72
2023/05/08 06:06:34;;;;;;;14.23;12.95;;;12.30;99.90;;;;;;5005396;28;20489;-72
2023/05/08 06:09:00;;;;;;;14.25;12.85;;;12.40;99.90;;;;;;5002659;28;20111;-72
2023/05/08 06:11:26;;;;;;;14.57;13.27;;;12.40;99.90;;;;;;5000664;28;20050;-72
2023/05/08 06:13:51;;;;;;;14.30;13.00;;;12.40;99.90;;;;;;5004816;28;20037;-72
2023/05/08 06:16:19;;;;;;;14.02;12.82;;;12.40;99.90;;;;;;5004397;28;20078;-72
2023/05/08 06:18:45;;;;;;;14.27;12.98;;;12.50;99.90;;;;;;5007153;28;20410;-72
2023/05/08 06:21:11;;;;;;;14.30;13.10;;;12.50;99.90;;;;;;5008947;28;20095;-72
2023/05/08 06:23:37;;;;;;;14.98;13.57;;;12.70;99.90;;;;;;4995402;28;20038;-72
2023/05/08 06:26:02;;;;;;;14.02;12.65;;;12.90;99.90;;;;;;5010938;28;20037;-72
2023/05/08 06:28:28;;;;;;;13.52;12.32;;;13.10;99.90;;;;;;5010970;28;20037;-72
2023/05/08 06:30:54;;;;;;;13.30;12.10;;;13.30;99.90;;;;;;5012978;28;20398;-72
2023/05/08 06:33:20;;;;;;;13.93;12.73;;;13.50;99.90;;;;;;5012567;28;20179;-72
2023/05/08 06:35:46;;;;;;;12.38;11.27;;;13.50;99.90;;;;;;5012856;28;20057;-72
2023/05/08 06:38:12;;;;;;;13.10;12.00;;;13.60;99.90;;;;;;5013913;28;20492;-72
2023/05/08 06:40:45;;;;;;;13.43;12.15;;;13.70;99.90;;;;;;5013629;28;20065;-72
2023/05/08 06:43:12;;;;;;;13.68;12.48;;;13.70;99.90;;;;;;5011543;28;20068;-72
2023/05/08 06:45:38;;;;;;;12.95;11.75;;;13.80;99.90;;;;;;5029291;28;20053;-72
2023/05/08 06:48:05;;;;;;;13.20;11.98;;;13.80;99.90;;;;;;5014282;28;20099;-72
2023/05/08 06:50:30;;;;;;;12.55;11.45;;;14.00;99.90;;;;;;5011979;28;20148;-72
2023/05/08 06:52:56;;;;;;;12.73;11.73;;;14.10;99.90;;;;;;5025248;28;20132;-72
2023/05/08 06:55:22;;;;;;;12.88;11.77;;;14.20;99.90;;;;;;5009802;28;20048;-72
2023/05/08 06:57:48;;;;;;;12.98;11.88;;;14.40;99.90;;;;;;5024847;28;20466;-72
2023/05/08 07:00:14;;;;;;;12.52;11.45;;;14.50;99.90;;;;;;5028135;28;20390;-73
2023/05/08 07:02:40;;;;;;;13.07;11.88;;;14.70;99.90;;;;;;5009493;28;20049;-73
2023/05/08 07:05:06;;;;;;;11.63;10.57;;;14.90;99.90;;;;;;5011444;28;20037;-73
2023/05/08 07:07:31;;;;;;;12.35;11.25;;;15.10;99.90;;;;;;5010727;28;20489;-73
2023/05/08 07:09:57;;;;;;;12.52;11.48;;;15.30;99.90;;;;;;4995395;28;20077;-73
2023/05/08 07:12:23;;;;;;;12.77;11.38;;;15.40;99.90;;;;;;5011329;28;20667;-73
2023/05/08 07:14:49;;;;;;;12.00;10.90;;;15.50;99.90;;;;;;5009549;28;20049;-73
2023/05/08 07:17:15;;;;;;;12.30;11.10;;;15.50;99.90;;;;;;5007368;28;20046;-73
2023/05/08 07:19:40;;;;;;;11.15;10.25;;;15.50;99.90;;;;;;5008081;28;20057;-73
2023/05/08 07:22:06;;;;;;;11.73;10.73;;;15.50;99.90;;;;;;5010412;28;20042;-73
2023/05/08 07:24:32;;;;;;;12.13;11.13;;;15.50;99.90;;;;;;4983574;28;20067;-73
2023/05/08 07:27:00;;;;;;;11.77;10.77;;;15.60;99.90;;;;;;5026419;28;20034;-73
2023/05/08 07:29:26;;;;;;;12.82;11.52;;;15.60;99.90;;;;;;5026051;28;20049;-73
2023/05/08 07:31:52;;;;;;;11.57;10.68;;;15.50;99.90;;;;;;5009199;28;20409;-73
2023/05/08 07:34:18;;;;;;;11.82;10.82;;;15.60;99.90;;;;;;5026022;28;20151;-71
2023/05/08 07:36:44;;;;;;;12.23;11.00;;;15.60;99.90;;;;;;5010479;28;20399;-71
2023/05/08 07:39:10;;;;;;;11.95;10.95;;;15.70;99.90;;;;;;5010104;28;20077;-71
2023/05/08 07:41:36;;;;;;;12.07;11.00;;;15.70;99.90;;;;;;5011401;28;20034;-73
2023/05/08 07:44:02;;;;;;;11.55;10.65;;;15.90;99.90;;;;;;5010175;28;20457;-73
2023/05/08 07:46:28;;;;;;;11.82;10.82;;;16.00;99.90;;;;;;5009591;28;20117;-73
2023/05/08 07:48:53;;;;;;;12.82;11.77;;;16.10;99.90;;;;;;5006457;28;20128;-72
2023/05/08 07:51:19;;;;;;;11.40;10.50;;;16.20;99.90;;;;;;5011484;28;20360;-72
2023/05/08 07:53:47;;;;;;;11.25;10.35;;;16.30;99.90;;;;;;5010585;28;20478;-72
2023/05/08 07:56:13;;;;;;;11.70;10.73;;;16.50;99.90;;;;;;5011503;28;20053;-72
2023/05/08 07:58:41;;;;;;;11.68;10.68;;;16.90;99.90;;;;;;5009969;28;20034;-72
2023/05/08 08:01:07;;;;;;;12.15;11.00;;;17.60;99.90;;;;;;4994339;28;20038;-73
2023/05/08 08:03:32;;;;;;;11.38;10.45;;;18.30;99.90;;;;;;4987579;28;20034;-73
2023/05/08 08:05:58;;;;;;;11.63;10.57;;;18.80;99.90;;;;;;5009409;28;20034;-73
2023/05/08 08:08:27;;;;;;;11.90;11.00;;;19.10;99.90;;;;;;4991495;28;20467;-73
2023/05/08 08:10:52;;;;;;;10.80;9.93;;;19.10;99.90;;;;;;5005515;28;20034;-73
2023/05/08 08:13:18;;;;;;;11.75;10.85;;;19.30;99.90;;;;;;5026882;28;20038;-73
2023/05/08 08:15:44;;;;;;;11.73;10.63;;;19.70;99.90;;;;;;5006519;28;20069;-73
2023/05/08 08:18:10;;;;;;;11.35;10.45;;;19.90;99.90;;;;;;5008746;28;20410;-73
2023/05/08 08:20:36;;;;;;;11.00;10.10;;;20.00;99.90;;;;;;5008710;28;20046;-73
2023/05/08 08:23:02;;;;;;;11.55;10.63;;;20.00;99.90;;;;;;5009917;28;20041;-73
2023/05/08 08:25:27;;;;;;;11.45;10.45;;;19.90;99.90;;;;;;5004213;28;20034;-73
2023/05/08 08:27:53;;;;;;;11.90;10.70;;;19.90;99.90;;;;;;5009190;28;20418;-73
2023/05/08 08:30:19;;;;;;;10.70;9.77;;;19.90;99.90;;;;;;5009165;28;20037;-73
2023/05/08 08:32:45;;;;;;;11.23;10.30;;;20.00;99.90;;;;;;5008312;28;20449;-73
2023/05/08 08:35:11;;;;;;;11.43;10.43;;;20.10;99.90;;;;;;5010047;28;20137;-73
2023/05/08 08:37:37;;;;;;;11.73;10.73;;;19.90;99.90;;;;;;5010256;28;20068;-73
2023/05/08 08:40:03;;;;;;;11.32;10.32;;;19.70;99.90;;;;;;5008149;28;20038;-73
2023/05/08 08:42:29;;;;;;;11.48;10.48;;;19.50;99.90;;;;;;5009249;28;20046;-73
2023/05/08 08:44:55;;;;;;;12.18;11.18;;;19.40;99.90;;;;;;5008916;28;20049;-73
2023/05/08 08:47:33;;;;;;;11.25;10.35;;;19.30;99.90;;;;;;5008859;28;20037;-73
2023/05/08 08:50:02;;;;;;;11.52;10.63;;;19.30;99.90;;;;;;5009286;28;20046;-73
2023/05/08 08:52:45;;;;;;;11.80;10.77;;;19.70;99.90;;;;;;5009909;28;20046;-73
2023/05/08 08:55:15;;;;;;;11.70;10.70;;;20.60;99.90;;;;;;5007660;28;20083;-74
2023/05/08 08:57:53;;;;;;;12.07;10.90;;;21.50;99.90;;;;;;5009713;28;20176;-74
2023/05/08 09:00:21;;;;;;;11.98;10.98;;;22.10;99.90;;;;;;5023233;28;20144;-73
2023/05/08 09:02:47;;;;;;;12.13;11.02;;;22.40;99.90;;;;;;5008316;28;20103;-73
2023/05/08 09:05:14;;;;;;;10.70;9.90;;;22.70;99.90;;;;;;5008809;28;20042;-74
2023/05/08 09:07:42;;;;;;;10.60;9.77;;;22.90;99.90;;;;;;5009492;28;20048;-74
2023/05/08 09:10:14;;;;;;;9.90;9.20;;;23.20;99.90;;;;;;4991072;28;20038;-74
2023/05/08 09:12:40;;;;;;;10.27;9.57;;;23.30;99.90;;;;;;4998176;28;20041;-75
2023/05/08 09:15:06;;;;;;;10.40;9.38;;;23.40;99.90;;;;;;5003397;28;20530;-74
2023/05/08 09:17:32;;;;;;;9.95;9.10;;;23.10;99.90;;;;;;4988049;28;20045;-74
2023/05/08 09:19:58;;;;;;;10.07;9.27;;;22.80;99.90;;;;;;4995444;28;20049;-74
2023/05/08 09:22:25;;;;;;;10.88;10.07;;;22.60;99.90;;;;;;5009096;28;20437;-74
2023/05/08 09:24:55;;;;;;;10.32;9.43;;;22.40;99.90;;;;;;5007323;28;20506;-73
2023/05/08 09:27:23;;;;;;;10.48;9.65;;;22.30;99.90;;;;;;5025394;28;20065;-73
2023/05/08 09:30:13;;;;;;;10.05;9.15;;;22.30;99.90;;;;;;5008800;28;20046;-74
2023/05/08 09:32:40;;;;;;;10.20;9.20;;;22.10;99.90;;;;;;4983153;28;20151;-74
2023/05/08 09:35:08;;;;;;;9.90;9.20;;;21.70;99.90;;;;;;5026388;28;20046;-74
2023/05/08 09:37:41;;;;;;;10.80;9.90;;;21.60;99.90;;;;;;5023543;28;20133;-74
2023/05/08 09:40:19;;;;;;;11.25;10.27;;;21.50;99.90;;;;;;5024479;28;20054;-74
2023/05/08 09:42:47;;;;;;;11.05;10.20;;;21.90;99.90;;;;;;5024830;28;20495;-76
2023/05/08 09:45:30;;;;;;;11.07;10.05;;;22.30;99.90;;;;;;5008088;28;20073;-76
2023/05/08 09:47:56;;;;;;;10.20;9.30;;;22.60;99.90;;;;;;5004487;28;20074;-75
2023/05/08 09:50:22;;;;;;;11.13;10.13;;;22.70;99.90;;;;;;5007536;28;20465;-76
2023/05/08 09:52:49;;;;;;;11.32;10.32;;;23.00;99.90;;;;;;5007738;28;20041;-75
2023/05/08 09:55:15;;;;;;;11.23;10.27;;;23.30;99.90;;;;;;5006131;28;20050;-75
2023/05/08 09:58:11;;;;;;;10.43;9.63;;;23.70;99.90;;;;;;5005363;28;20104;-75
2023/05/08 10:00:38;;;;;;;11.45;10.13;;;23.90;99.90;;;;;;4990158;28;20062;-75
2023/05/08 10:03:04;;;;;;;10.13;9.30;;;24.00;99.90;;;;;;5006537;28;20041;-75
2023/05/08 10:05:33;;;;;;;10.38;9.52;;;24.20;99.90;;;;;;5024813;28;20054;-75
2023/05/08 10:08:17;;;;;;;10.93;10.13;;;24.20;99.90;;;;;;5008457;28;20042;-75
2023/05/08 10:10:43;;;;;;;10.70;9.82;;;24.30;99.90;;;;;;5006969;28;20042;-75
2023/05/08 10:13:09;;;;;;;10.25;9.38;;;24.10;99.90;;;;;;5024417;28;20073;-75
2023/05/08 10:15:37;;;;;;;11.27;10.38;;;24.10;99.90;;;;;;5014009;28;20042;-75
2023/05/08 10:18:05;;;;;;;11.57;10.63;;;24.10;99.90;;;;;;5022648;28;20096;-75
2023/05/08 10:20:32;;;;;;;11.77;10.88;;;23.90;99.90;;;;;;5006778;28;20060;-75
2023/05/08 10:22:58;;;;;;;10.32;9.50;;;23.80;99.90;;;;;;5008517;28;20445;-76
2023/05/08 10:25:24;;;;;;;10.90;10.10;;;23.90;99.90;;;;;;5007773;28;20041;-76
2023/05/08 10:27:59;;;;;;;10.50;9.70;;;24.20;99.90;;;;;;5005177;28;20034;-76
2023/05/08 10:30:26;;;;;;;10.25;9.45;;;24.50;99.90;;;;;;5007975;28;20666;-77
2023/05/08 10:32:57;;;;;;;13.75;10.00;;;24.90;99.90;;;;;;4989104;28;20069;-77
2023/05/08 10:35:23;;;;;;;11.60;10.60;;;25.50;99.90;;;;;;5025070;28;20141;-77
2023/05/08 10:37:49;;;;;;;11.43;10.38;;;25.80;99.90;;;;;;5005211;28;20121;-77
2023/05/08 10:40:15;;;;;;;10.55;9.73;;;25.90;99.70;;;;;;5009727;28;20049;-77
2023/05/08 10:42:41;;;;;;;10.75;9.85;;;26.10;99.10;;;;;;4990704;28;20531;-77
2023/05/08 10:45:08;;;;;;;10.80;10.00;;;26.30;98.50;;;;;;5025930;28;20133;-77
2023/05/08 10:48:11;;;;;;;11.60;10.75;;;26.40;98.30;;;;;;4999292;28;20041;-77
2023/05/08 10:50:55;;;;;;;10.95;10.13;;;26.60;96.70;;;;;;5006545;28;20497;-77
2023/05/08 10:53:42;;;;;;;9.52;8.73;;;26.60;96.20;;;;;;4988975;28;20048;-76
2023/05/08 10:56:10;;;;;;;10.10;9.25;;;26.40;94.20;;;;;;5005942;28;20037;-76
2023/05/08 10:58:39;;;;;;;10.88;10.07;;;26.10;94.90;;;;;;5006373;28;20518;-76
2023/05/08 11:01:08;;;;;;;11.25;10.38;;;26.10;94.40;;;;;;5005948;28;20477;-76
2023/05/08 11:03:40;;;;;;;10.50;9.73;;;26.10;95.80;;;;;;4984167;28;20034;-77
2023/05/08 11:06:06;;;;;;;10.65;9.50;;;26.20;96.90;;;;;;5022454;28;20030;-77
2023/05/08 11:08:32;;;;;;;10.75;9.88;;;26.40;96.70;;;;;;5009785;28;20387;-77
2023/05/08 11:11:00;;;;;;;11.80;10.77;;;26.70;96.60;;;;;;5012761;28;20038;-77
2023/05/08 11:13:47;;;;;;;12.02;11.02;;;26.90;95.30;;;;;;5011352;28;20048;-77
2023/05/08 11:16:12;;;;;;;12.25;11.15;;;27.20;94.00;;;;;;5011029;28;20727;-77
2023/05/08 11:19:18;;;;;;;13.15;11.88;;;27.20;93.40;;;;;;5009310;28;20046;-77
2023/05/08 11:22:31;;;;;;;12.55;11.43;;;27.20;93.80;;;;;;5014853;28;20493;-77
2023/05/08 11:25:09;;;;;;;13.27;12.10;;;27.10;93.80;;;;;;5006838;28;20132;-77
2023/05/08 11:27:44;;;;;;;13.18;12.18;;;26.70;93.30;;;;;;5013110;28;20422;-77
2023/05/08 11:30:31;;;;;;;13.98;12.65;;;26.60;93.00;;;;;;5011871;28;20042;-77
2023/05/08 11:33:18;;;;;;;13.20;12.10;;;26.60;92.10;;;;;;5008234;28;20053;-77
2023/05/08 11:35:57;;;;;;;12.48;11.40;;;26.50;93.30;;;;;;5009091;28;20061;-77
2023/05/08 11:38:30;;;;;;;13.38;12.23;;;26.70;93.00;;;;;;5025432;28;20098;-76
2023/05/08 11:41:07;;;;;;;12.52;11.32;;;26.80;93.00;;;;;;5011168;28;20046;-77
2023/05/08 11:43:35;;;;;;;11.73;10.82;;;27.00;91.90;;;;;;5009035;28;20486;-78
2023/05/08 11:46:03;;;;;;;12.85;11.75;;;27.10;93.20;;;;;;5008743;28;20492;-78
2023/05/08 11:48:33;;;;;;;11.80;10.70;;;27.30;93.10;;;;;;5025540;28;20038;-78
2023/05/08 11:50:59;;;;;;;12.75;11.55;;;27.60;92.10;;;;;;5004792;28;20034;-77
2023/05/08 11:53:25;;;;;;;12.02;11.02;;;27.70;92.70;;;;;;5006070;28;20501;-77
2023/05/08 11:55:52;;;;;;;11.00;9.93;;;27.80;91.70;;;;;;5025974;28;20109;-77
2023/05/08 11:58:18;;;;;;;11.65;10.50;;;27.80;91.30;;;;;;5008076;28;20200;-77
2023/05/08 12:00:45;;;;;;;11.25;10.13;;;27.90;91.20;;;;;;5009444;28;20057;-77
2023/05/08 12:03:12;;;;;;;11.65;10.65;;;27.90;90.40;;;;;;5006358;28;20077;-77
2023/05/08 12:05:39;;;;;;;10.57;9.52;;;27.90;90.20;;;;;;4991356;28;20030;-77
2023/05/08 12:08:06;;;;;;;10.68;9.77;;;27.90;90.40;;;;;;5023196;28;20045;-76
2023/05/08 12:10:37;;;;;;;11.40;10.48;;;27.80;90.00;;;;;;5010250;28;20451;-76
2023/05/08 12:13:16;;;;;;;12.60;11.60;;;27.70;90.30;;;;;;5006931;28;20132;-76
2023/05/08 12:15:41;;;;;;;13.43;12.18;;;27.30;87.30;;;;;;5009315;28;20041;-76
2023/05/08 12:18:07;;;;;;;11.68;10.68;;;27.00;89.00;;;;;;5008570;28;20038;-76
2023/05/08 12:20:33;;;;;;;12.50;11.50;;;26.80;90.10;;;;;;5010271;28;20050;-77
2023/05/08 12:23:02;;;;;;;12.02;10.98;;;26.80;89.70;;;;;;5007437;28;20077;-77
2023/05/08 12:25:28;;;;;;;11.45;10.50;;;27.10;90.10;;;;;;5011175;28;20030;-77
2023/05/08 12:27:54;;;;;;;12.20;11.20;;;27.30;91.30;;;;;;5009964;28;20480;-76
2023/05/08 12:30:20;;;;;;;12.45;11.35;;;27.70;90.10;;;;;;5010215;28;20132;-76
2023/05/08 12:32:46;;;;;;;11.48;10.50;;;27.70;89.20;;;;;;5008121;28;20108;-76
2023/05/08 12:35:13;;;;;;;12.50;11.48;;;27.20;89.00;;;;;;5009267;28;20094;-76
2023/05/08 12:37:39;;;;;;;13.27;12.18;;;26.70;90.10;;;;;;5007836;28;20062;-76
2023/05/08 12:40:06;;;;;;;13.00;11.80;;;26.30;90.10;;;;;;5009836;28;20042;-76